createdAt,value
2019-01-30T00:01:58.171Z,2.90
2019-01-30T00:04:27.096Z,2.90
2019-01-30T00:06:56.156Z,2.90
2019-01-30T00:09:25.210Z,2.90
2019-01-30T00:11:54.273Z,2.90
2019-01-30T00:14:23.233Z,2.90
2019-01-30T00:16:52.224Z,2.90
2019-01-30T00:19:21.208Z,2.90
2019-01-30T00:21:50.137Z,2.90
2019-01-30T00:24:19.285Z,2.90
2019-01-30T00:26:48.211Z,2.80
2019-01-30T00:29:17.216Z,2.80
2019-01-30T00:31:46.175Z,2.80
2019-01-30T00:34:15.180Z,2.90
2019-01-30T00:36:44.172Z,2.90
2019-01-30T00:39:13.111Z,2.80
2019-01-30T00:41:42.052Z,2.80
2019-01-30T00:44:10.993Z,2.80
2019-01-30T00:46:39.933Z,2.70
2019-01-30T00:49:08.876Z,2.70
2019-01-30T00:51:37.876Z,2.70
2019-01-30T00:54:06.889Z,2.60
2019-01-30T00:56:36.141Z,2.70
2019-01-30T00:59:05.275Z,2.70
2019-01-30T01:01:34.283Z,2.70
2019-01-30T01:04:03.304Z,2.60
2019-01-30T01:06:32.304Z,2.60
2019-01-30T01:09:01.260Z,2.60
2019-01-30T01:11:30.272Z,2.60
2019-01-30T01:13:59.220Z,2.60
2019-01-30T01:16:28.228Z,2.60
2019-01-30T01:18:57.310Z,2.60
2019-01-30T01:21:26.356Z,2.60
2019-01-30T01:23:55.353Z,2.60
2019-01-30T01:26:24.425Z,2.60
2019-01-30T01:28:53.429Z,2.60
2019-01-30T01:31:22.369Z,2.60
2019-01-30T01:33:51.296Z,2.50
2019-01-30T01:36:20.336Z,2.60
2019-01-30T01:38:49.288Z,2.50
2019-01-30T01:41:18.314Z,2.50
2019-01-30T01:43:47.174Z,2.50
2019-01-30T01:46:16.181Z,2.50
2019-01-30T01:48:45.153Z,2.60
2019-01-30T01:51:14.176Z,2.50
2019-01-30T01:53:43.052Z,2.50
2019-01-30T01:56:12.336Z,2.50
2019-01-30T01:58:41.709Z,2.60
2019-01-30T02:01:10.706Z,2.60
2019-01-30T02:03:39.642Z,2.60
2019-01-30T02:06:08.657Z,2.60
2019-01-30T02:08:37.690Z,2.60
2019-01-30T02:11:06.705Z,2.50
2019-01-30T02:13:37.277Z,2.50
2019-01-30T02:16:06.271Z,2.50
2019-01-30T02:18:35.204Z,2.50
2019-01-30T02:21:04.872Z,2.60
2019-01-30T02:23:34.233Z,2.50
2019-01-30T02:26:03.269Z,2.50
2019-01-30T02:28:32.128Z,2.60
2019-01-30T02:31:01.144Z,2.60
2019-01-30T02:33:30.057Z,2.60
2019-01-30T02:35:58.980Z,2.60
2019-01-30T02:38:27.924Z,2.60
2019-01-30T02:40:56.851Z,2.60
2019-01-30T02:43:25.801Z,2.60
2019-01-30T02:45:54.838Z,2.70
2019-01-30T02:48:24.516Z,2.70
2019-01-30T02:50:53.512Z,2.60
2019-01-30T02:53:22.531Z,2.60
2019-01-30T02:55:51.475Z,2.60
2019-01-30T02:58:20.745Z,2.60
2019-01-30T03:00:58.899Z,2.60
2019-01-30T03:03:20.577Z,2.60
2019-01-30T03:05:49.556Z,2.60
2019-01-30T03:08:18.777Z,2.60
2019-01-30T03:11:07.014Z,2.60
2019-01-30T03:13:35.929Z,2.60
2019-01-30T03:16:04.872Z,2.60
2019-01-30T03:18:33.810Z,2.60
2019-01-30T03:21:03.289Z,2.70
2019-01-30T03:23:32.301Z,2.70
2019-01-30T03:26:01.250Z,2.70
2019-01-30T03:28:49.376Z,2.70
2019-01-30T03:31:19.571Z,2.70
2019-01-30T03:33:48.846Z,2.80
2019-01-30T03:36:17.756Z,2.80
2019-01-30T03:38:46.708Z,2.90
2019-01-30T03:41:15.729Z,2.90
2019-01-30T03:43:44.592Z,2.90
2019-01-30T03:46:13.613Z,2.80
2019-01-30T03:48:42.552Z,2.80
2019-01-30T03:51:11.472Z,2.80
2019-01-30T03:53:40.388Z,2.80
2019-01-30T03:56:09.325Z,2.80
2019-01-30T03:58:38.258Z,2.90
2019-01-30T04:01:07.404Z,2.90
2019-01-30T04:03:36.409Z,2.90
2019-01-30T04:06:05.429Z,2.90
2019-01-30T04:08:34.481Z,2.90
2019-01-30T04:11:03.517Z,2.90
2019-01-30T04:13:32.553Z,2.90
2019-01-30T04:16:01.536Z,3.00
2019-01-30T04:18:30.538Z,3.00
2019-01-30T04:20:59.556Z,3.00
2019-01-30T04:23:28.558Z,3.00
2019-01-30T04:25:57.519Z,3.00
2019-01-30T04:28:26.537Z,3.00
2019-01-30T04:30:55.488Z,3.00
2019-01-30T04:33:24.480Z,3.00
2019-01-30T04:35:53.448Z,3.00
2019-01-30T04:38:22.376Z,3.00
2019-01-30T04:40:51.316Z,3.00
2019-01-30T04:43:20.646Z,3.10
2019-01-30T04:45:49.557Z,3.00
2019-01-30T04:48:18.495Z,3.10
2019-01-30T04:50:47.535Z,3.10
2019-01-30T04:53:16.389Z,3.10
2019-01-30T04:55:45.245Z,3.10
2019-01-30T04:58:14.169Z,3.00
2019-01-30T05:00:43.437Z,3.10
2019-01-30T05:03:12.500Z,3.10
2019-01-30T05:05:41.416Z,3.10
2019-01-30T05:08:10.799Z,3.10
2019-01-30T05:10:39.740Z,3.10
2019-01-30T05:13:08.733Z,3.10
2019-01-30T05:15:37.757Z,3.10
2019-01-30T05:18:06.668Z,3.00
2019-01-30T05:20:35.754Z,3.10
2019-01-30T05:23:04.862Z,3.10
2019-01-30T05:25:34.011Z,3.10
2019-01-30T05:28:02.914Z,3.10
2019-01-30T05:30:32.826Z,3.20
2019-01-30T05:33:01.828Z,3.20
2019-01-30T05:35:30.896Z,3.20
2019-01-30T05:37:59.936Z,3.20
2019-01-30T05:40:28.948Z,3.20
2019-01-30T05:42:57.812Z,3.30
2019-01-30T05:45:27.833Z,3.20
2019-01-30T05:47:56.837Z,3.30
2019-01-30T05:50:27.321Z,3.30
2019-01-30T05:52:56.347Z,3.30
2019-01-30T05:55:25.760Z,3.30
2019-01-30T05:57:54.780Z,3.30
2019-01-30T06:00:28.011Z,3.30
2019-01-30T06:02:57.896Z,3.30
2019-01-30T06:05:26.900Z,3.30
2019-01-30T06:07:55.964Z,3.30
2019-01-30T06:10:25.081Z,3.30
2019-01-30T06:13:13.350Z,3.30
2019-01-30T06:15:42.409Z,3.30
2019-01-30T06:18:11.381Z,3.30
2019-01-30T06:20:40.364Z,3.30
2019-01-30T06:23:09.646Z,3.40
2019-01-30T06:25:39.069Z,3.30
2019-01-30T06:28:08.114Z,3.30
2019-01-30T06:30:37.178Z,3.30
2019-01-30T06:33:06.286Z,3.30
2019-01-30T06:35:35.443Z,3.30
2019-01-30T06:38:04.473Z,3.30
2019-01-30T06:40:34.180Z,3.40
2019-01-30T06:43:03.406Z,3.40
2019-01-30T06:45:32.806Z,3.40
2019-01-30T06:48:01.781Z,3.30
2019-01-30T06:50:30.792Z,3.40
2019-01-30T06:52:59.825Z,3.30
2019-01-30T06:55:47.882Z,3.40
2019-01-30T06:58:17.366Z,3.40
2019-01-30T07:00:47.243Z,3.40
2019-01-30T07:03:16.199Z,3.30
2019-01-30T07:05:48.064Z,3.30
2019-01-30T07:08:17.014Z,3.30
2019-01-30T07:10:46.262Z,3.30
2019-01-30T07:13:15.176Z,3.30
2019-01-30T07:15:44.143Z,3.30
2019-01-30T07:18:13.139Z,3.30
2019-01-30T07:20:42.060Z,3.30
2019-01-30T07:23:10.980Z,3.30
2019-01-30T07:25:40.298Z,3.30
2019-01-30T07:28:09.296Z,3.30
2019-01-30T07:30:38.390Z,3.30
2019-01-30T07:33:08.061Z,3.30
2019-01-30T07:35:36.996Z,3.40
2019-01-30T07:38:06.136Z,3.40
2019-01-30T07:40:35.152Z,3.40
2019-01-30T07:43:04.247Z,3.40
2019-01-30T07:45:33.316Z,3.30
2019-01-30T07:48:02.337Z,3.40
2019-01-30T07:50:31.683Z,3.40
2019-01-30T07:53:01.302Z,3.40
2019-01-30T07:55:30.454Z,3.40
2019-01-30T07:58:20.035Z,3.40
2019-01-30T08:00:48.993Z,3.30
2019-01-30T08:03:20.828Z,3.30
2019-01-30T08:05:49.856Z,3.40
2019-01-30T08:08:18.900Z,3.30
2019-01-30T08:10:48.003Z,3.30
2019-01-30T08:13:17.388Z,3.30
2019-01-30T08:15:46.424Z,3.30
2019-01-30T08:18:15.686Z,3.30
2019-01-30T08:20:44.705Z,3.30
2019-01-30T08:23:13.851Z,3.30
2019-01-30T08:25:43.288Z,3.30
2019-01-30T08:28:12.622Z,3.20
2019-01-30T08:30:43.327Z,3.30
2019-01-30T08:33:13.341Z,3.30
2019-01-30T08:35:42.398Z,3.40
2019-01-30T08:38:11.852Z,3.40
2019-01-30T08:40:40.787Z,3.40
2019-01-30T08:43:09.749Z,3.40
2019-01-30T08:45:38.845Z,3.50
2019-01-30T08:48:07.859Z,3.50
2019-01-30T08:50:37.093Z,3.50
2019-01-30T08:53:08.612Z,3.60
2019-01-30T08:55:37.681Z,3.50
2019-01-30T08:58:06.769Z,3.50
2019-01-30T09:00:36.087Z,3.50
2019-01-30T09:03:14.448Z,3.60
2019-01-30T09:05:36.095Z,3.60
2019-01-30T09:08:05.215Z,3.60
2019-01-30T09:10:34.356Z,3.60
2019-01-30T09:13:32.045Z,3.70
2019-01-30T09:16:28.007Z,3.60
2019-01-30T09:19:00.477Z,3.60
2019-01-30T09:21:29.669Z,3.50
2019-01-30T09:23:58.643Z,3.60
2019-01-30T09:26:27.758Z,3.60
2019-01-30T09:28:56.731Z,3.70
2019-01-30T09:31:26.077Z,3.60
2019-01-30T09:33:54.997Z,3.60
2019-01-30T09:36:24.018Z,3.60
2019-01-30T09:38:53.089Z,3.60
2019-01-30T09:41:25.179Z,3.60
2019-01-30T09:43:54.146Z,3.70
2019-01-30T09:46:23.148Z,3.70
2019-01-30T09:48:52.026Z,3.60
2019-01-30T09:51:21.163Z,3.60
2019-01-30T09:53:50.180Z,3.70
2019-01-30T09:56:19.284Z,3.70
2019-01-30T09:58:50.025Z,3.70
2019-01-30T10:01:19.531Z,3.70
2019-01-30T10:04:25.182Z,3.80
2019-01-30T10:06:54.153Z,3.70
2019-01-30T10:09:23.184Z,3.80
2019-01-30T10:11:52.252Z,3.80
2019-01-30T10:14:21.184Z,3.90
2019-01-30T10:16:51.546Z,3.90
2019-01-30T10:19:20.468Z,3.90
2019-01-30T10:21:49.417Z,3.90
2019-01-30T10:24:18.375Z,3.90
2019-01-30T10:26:47.302Z,3.90
2019-01-30T10:29:16.376Z,4.00
2019-01-30T10:32:04.483Z,4.00
2019-01-30T10:34:36.944Z,3.90
2019-01-30T10:37:08.994Z,3.80
2019-01-30T10:39:38.887Z,3.90
2019-01-30T10:45:17.369Z,3.90
2019-01-30T10:47:46.407Z,3.80
2019-01-30T10:50:17.452Z,3.90
2019-01-30T10:52:46.582Z,3.90
2019-01-30T10:55:18.161Z,3.90
2019-01-30T10:57:50.045Z,3.90
2019-01-30T11:00:21.594Z,4.00
2019-01-30T11:02:50.669Z,4.00
2019-01-30T11:05:19.872Z,4.10
2019-01-30T11:07:49.488Z,4.00
2019-01-30T11:10:19.133Z,4.10
2019-01-30T11:12:48.232Z,4.00
2019-01-30T11:15:19.032Z,4.00
2019-01-30T11:17:48.255Z,4.10
2019-01-30T11:20:18.468Z,4.10
2019-01-30T11:22:47.520Z,4.10
2019-01-30T11:25:20.381Z,4.10
2019-01-30T11:27:49.393Z,4.10
2019-01-30T11:30:18.689Z,4.00
2019-01-30T11:32:47.693Z,3.90
2019-01-30T11:35:16.731Z,3.90
2019-01-30T11:37:45.805Z,4.00
2019-01-30T11:40:16.053Z,4.00
2019-01-30T11:42:45.048Z,3.90
2019-01-30T11:45:32.381Z,3.90
2019-01-30T11:48:01.407Z,4.00
2019-01-30T11:50:30.441Z,4.00
2019-01-30T11:52:59.674Z,4.00
2019-01-30T11:55:28.703Z,4.00
2019-01-30T11:57:57.729Z,4.10
2019-01-30T12:00:40.472Z,4.10
2019-01-30T12:03:09.558Z,4.10
2019-01-30T12:05:38.598Z,4.10
2019-01-30T12:08:07.773Z,4.10
2019-01-30T12:10:36.756Z,4.10
2019-01-30T12:13:05.908Z,4.10
2019-01-30T12:15:34.839Z,4.10
2019-01-30T12:18:03.844Z,4.10
2019-01-30T12:20:33.300Z,4.10
2019-01-30T12:23:04.244Z,4.20
2019-01-30T12:25:33.301Z,4.30
2019-01-30T12:28:02.321Z,4.30
2019-01-30T12:30:31.485Z,4.40
2019-01-30T12:33:00.444Z,4.40
2019-01-30T12:35:29.456Z,4.30
2019-01-30T12:37:58.390Z,4.30
2019-01-30T12:40:28.702Z,4.30
2019-01-30T12:42:59.588Z,4.20
2019-01-30T12:45:30.952Z,4.20
2019-01-30T12:47:59.960Z,4.10
2019-01-30T12:50:29.877Z,4.10
2019-01-30T12:52:59.106Z,4.20
2019-01-30T12:55:29.567Z,4.20
2019-01-30T12:57:59.627Z,4.20
2019-01-30T13:00:31.669Z,4.20
2019-01-30T13:03:00.943Z,4.20
2019-01-30T13:05:30.056Z,4.20
2019-01-30T13:07:59.401Z,4.30
2019-01-30T13:10:28.433Z,4.40
2019-01-30T13:12:57.361Z,4.40
2019-01-30T13:15:27.464Z,4.50
2019-01-30T13:17:56.606Z,4.50
2019-01-30T13:20:25.686Z,4.50
2019-01-30T13:22:54.873Z,4.50
2019-01-30T13:25:29.564Z,4.50
2019-01-30T13:27:58.900Z,4.50
2019-01-30T13:30:30.677Z,4.60
2019-01-30T13:33:00.095Z,4.50
2019-01-30T13:35:29.144Z,4.50
2019-01-30T13:37:58.157Z,4.40
2019-01-30T13:40:29.811Z,4.40
2019-01-30T13:42:58.863Z,4.50
2019-01-30T13:45:28.676Z,4.50
2019-01-30T13:47:57.794Z,4.50
2019-01-30T13:50:27.263Z,4.60
2019-01-30T13:52:56.271Z,4.60
2019-01-30T13:55:26.002Z,4.60
2019-01-30T13:57:55.078Z,4.60
2019-01-30T14:00:29.516Z,4.60
2019-01-30T14:02:58.534Z,4.60
2019-01-30T14:05:27.680Z,4.60
2019-01-30T14:07:59.585Z,4.60
2019-01-30T14:10:29.232Z,4.50
2019-01-30T14:12:58.289Z,4.50
2019-01-30T14:15:28.903Z,4.60
2019-01-30T14:17:58.748Z,4.60
2019-01-30T14:20:27.828Z,4.60
2019-01-30T14:22:56.847Z,4.50
2019-01-30T14:25:26.172Z,4.50
2019-01-30T14:27:55.168Z,4.50
2019-01-30T14:30:26.669Z,4.40
2019-01-30T14:32:57.371Z,4.40
2019-01-30T14:35:28.221Z,4.30
2019-01-30T14:37:57.604Z,4.20
2019-01-30T14:40:26.664Z,4.20
2019-01-30T14:42:55.758Z,4.20
2019-01-30T14:45:24.815Z,4.20
2019-01-30T14:47:54.093Z,4.20
2019-01-30T14:50:25.426Z,4.20
2019-01-30T14:52:54.483Z,4.30
2019-01-30T14:55:23.564Z,4.30
2019-01-30T14:57:52.742Z,4.30
2019-01-30T15:00:24.588Z,4.30
2019-01-30T15:02:54.544Z,4.40
2019-01-30T15:05:23.554Z,4.30
2019-01-30T15:07:52.663Z,4.30
2019-01-30T15:10:24.338Z,4.40
2019-01-30T15:12:57.613Z,4.40
2019-01-30T15:15:28.488Z,4.40
2019-01-30T15:17:57.432Z,4.50
2019-01-30T15:20:28.570Z,4.50
2019-01-30T15:22:58.172Z,4.60
2019-01-30T15:25:27.680Z,4.60
2019-01-30T15:27:58.268Z,4.60
2019-01-30T15:30:30.060Z,4.50
2019-01-30T15:32:59.079Z,4.40
2019-01-30T15:35:33.521Z,4.50
2019-01-30T15:38:00.537Z,4.50
2019-01-30T15:40:30.383Z,4.50
2019-01-30T15:42:59.386Z,4.50
2019-01-30T15:45:28.409Z,4.50
2019-01-30T15:47:57.437Z,4.40
2019-01-30T15:50:28.339Z,4.40
2019-01-30T15:52:58.756Z,4.50
2019-01-30T15:55:27.923Z,4.40
2019-01-30T15:58:02.676Z,4.50
2019-01-30T16:00:40.293Z,4.50
2019-01-30T16:03:09.298Z,4.50
2019-01-30T16:05:45.185Z,4.50
2019-01-30T16:08:09.456Z,4.40
2019-01-30T16:10:40.069Z,4.40
2019-01-30T16:13:09.081Z,4.50
2019-01-30T16:15:41.444Z,4.50
2019-01-30T16:18:11.261Z,4.50
2019-01-30T16:20:40.178Z,4.50
2019-01-30T16:23:10.070Z,4.50
2019-01-30T16:25:39.056Z,4.50
2019-01-30T16:28:08.281Z,4.50
2019-01-30T16:30:37.397Z,4.50
2019-01-30T16:33:06.757Z,4.50
2019-01-30T16:35:35.741Z,4.50
2019-01-30T16:38:05.370Z,4.50
2019-01-30T16:40:34.224Z,4.40
2019-01-30T16:43:03.323Z,4.50
2019-01-30T16:45:32.362Z,4.40
2019-01-30T16:48:01.426Z,4.40
2019-01-30T16:50:30.553Z,4.30
2019-01-30T16:52:59.671Z,4.30
2019-01-30T16:55:28.736Z,4.30
2019-01-30T16:57:57.780Z,4.40
2019-01-30T17:00:31.845Z,4.40
2019-01-30T17:03:01.382Z,4.40
2019-01-30T17:05:30.897Z,4.30
2019-01-30T17:07:59.932Z,4.30
2019-01-30T17:10:28.941Z,4.30
2019-01-30T17:12:57.906Z,4.30
2019-01-30T17:15:29.251Z,4.30
2019-01-30T17:17:58.277Z,4.30
2019-01-30T17:20:36.233Z,4.30
2019-01-30T17:23:05.394Z,4.30
2019-01-30T17:25:34.389Z,4.20
2019-01-30T17:28:03.429Z,4.20
2019-01-30T17:30:38.437Z,4.20
2019-01-30T17:33:07.470Z,4.20
2019-01-30T17:35:37.057Z,4.20
2019-01-30T17:38:06.156Z,4.20
2019-01-30T17:40:35.187Z,4.20
2019-01-30T17:43:04.548Z,4.20
2019-01-30T17:45:33.704Z,4.20
2019-01-30T17:48:02.788Z,4.20
2019-01-30T17:50:31.843Z,4.20
2019-01-30T17:53:00.869Z,4.20
2019-01-30T17:55:29.947Z,4.30
2019-01-30T17:57:59.284Z,4.30
2019-01-30T18:00:34.038Z,4.30
2019-01-30T18:03:03.046Z,4.30
2019-01-30T18:05:32.085Z,4.30
2019-01-30T18:08:01.046Z,4.30
2019-01-30T18:10:29.902Z,4.20
2019-01-30T18:12:58.923Z,4.30
2019-01-30T18:15:28.076Z,4.30
2019-01-30T18:17:57.056Z,4.30
2019-01-30T18:20:26.072Z,4.20
2019-01-30T18:22:55.144Z,4.30
2019-01-30T18:25:24.127Z,4.30
2019-01-30T18:27:53.048Z,4.30
2019-01-30T18:30:26.336Z,4.20
2019-01-30T18:32:55.387Z,4.20
2019-01-30T18:35:26.135Z,4.20
2019-01-30T18:37:55.144Z,4.30
2019-01-30T18:40:24.526Z,4.30
2019-01-30T18:42:54.216Z,4.30
2019-01-30T18:45:24.646Z,4.30
2019-01-30T18:47:53.941Z,4.30
2019-01-30T18:50:24.761Z,4.30
2019-01-30T18:52:54.116Z,4.30
2019-01-30T18:55:23.137Z,4.20
2019-01-30T18:57:52.504Z,4.10
2019-01-30T19:00:27.136Z,4.00
2019-01-30T19:02:57.737Z,3.90
2019-01-30T19:05:26.871Z,3.90
2019-01-30T19:07:56.155Z,3.90
2019-01-30T19:10:26.037Z,3.90
2019-01-30T19:12:55.083Z,3.90
2019-01-30T19:15:25.595Z,3.90
2019-01-30T19:17:54.638Z,4.00
2019-01-30T19:20:26.108Z,4.10
2019-01-30T19:22:57.195Z,4.10
2019-01-30T19:25:26.482Z,4.10
2019-01-30T19:27:56.258Z,4.10
2019-01-30T19:30:27.617Z,3.90
2019-01-30T19:32:56.759Z,3.80
2019-01-30T19:35:25.740Z,3.80
2019-01-30T19:37:55.084Z,3.80
2019-01-30T19:40:24.138Z,3.70
2019-01-30T19:42:53.131Z,3.70
2019-01-30T19:45:23.881Z,3.70
2019-01-30T19:47:52.997Z,3.70
2019-01-30T19:50:24.288Z,3.70
2019-01-30T19:52:53.609Z,3.60
2019-01-30T19:55:22.541Z,3.50
2019-01-30T19:57:52.594Z,3.60
2019-01-30T20:00:25.183Z,3.60
2019-01-30T20:02:54.388Z,3.50
2019-01-30T20:05:23.408Z,3.60
2019-01-30T20:07:52.688Z,3.50
2019-01-30T20:10:27.568Z,3.50
2019-01-30T20:12:56.648Z,3.50
2019-01-30T20:15:25.728Z,3.50
2019-01-30T20:17:55.848Z,3.60
2019-01-30T20:20:26.062Z,3.60
2019-01-30T20:22:55.341Z,3.70
2019-01-30T20:25:26.848Z,3.60
2019-01-30T20:27:55.957Z,3.70
2019-01-30T20:30:25.404Z,3.60
2019-01-30T20:32:54.408Z,3.60
2019-01-30T20:35:23.388Z,3.60
2019-01-30T20:37:54.125Z,3.60
2019-01-30T20:40:24.909Z,3.50
2019-01-30T20:42:53.933Z,3.50
2019-01-30T20:45:32.982Z,3.50
2019-01-30T20:47:53.689Z,3.40
2019-01-30T20:50:27.547Z,3.30
2019-01-30T20:52:56.760Z,3.30
2019-01-30T20:55:25.773Z,3.20
2019-01-30T20:57:54.889Z,3.20
2019-01-30T21:00:29.160Z,3.10
2019-01-30T21:02:58.158Z,3.10
2019-01-30T21:05:27.162Z,3.00
2019-01-30T21:07:56.450Z,3.00
2019-01-30T21:10:28.098Z,3.00
2019-01-30T21:12:57.113Z,2.90
2019-01-30T21:15:26.522Z,3.00
2019-01-30T21:17:55.540Z,3.10
2019-01-30T21:20:24.536Z,3.10
2019-01-30T21:22:53.792Z,3.20
2019-01-30T21:25:24.343Z,3.20
2019-01-30T21:27:53.356Z,3.20
2019-01-30T21:30:27.402Z,3.30
2019-01-30T21:32:56.420Z,3.30
2019-01-30T21:35:26.466Z,3.40
2019-01-30T21:37:55.462Z,3.50
2019-01-30T21:40:24.464Z,3.50
2019-01-30T21:42:53.493Z,3.40
2019-01-30T21:45:23.760Z,3.50
2019-01-30T21:47:54.824Z,3.60
2019-01-30T21:50:24.165Z,3.60
2019-01-30T21:52:53.220Z,3.70
2019-01-30T21:55:23.597Z,3.70
2019-01-30T21:57:52.604Z,3.80
2019-01-30T22:00:23.435Z,3.80
2019-01-30T22:02:52.648Z,3.80
2019-01-30T22:05:21.664Z,3.80
2019-01-30T22:08:02.136Z,3.80
2019-01-30T22:10:31.195Z,3.70
2019-01-30T22:13:00.320Z,3.80
2019-01-30T22:15:31.677Z,3.70
2019-01-30T22:18:03.684Z,3.70
2019-01-30T22:20:32.523Z,3.70
2019-01-30T22:23:01.448Z,3.70
2019-01-30T22:25:32.753Z,3.60
2019-01-30T22:28:04.818Z,3.60
2019-01-30T22:30:36.047Z,3.60
2019-01-30T22:33:06.056Z,3.60
2019-01-30T22:35:35.025Z,3.60
2019-01-30T22:38:12.453Z,3.50
2019-01-30T22:40:38.835Z,3.50
2019-01-30T22:43:07.807Z,3.60
2019-01-30T22:45:38.245Z,3.50
2019-01-30T22:48:07.316Z,3.60
2019-01-30T22:50:39.312Z,3.60
2019-01-30T22:53:08.321Z,3.60
2019-01-30T22:55:37.235Z,3.60
2019-01-30T22:58:07.653Z,3.50
2019-01-30T23:01:15.433Z,3.50
2019-01-30T23:04:09.896Z,3.50
2019-01-30T23:06:57.262Z,3.50
2019-01-30T23:09:57.841Z,3.50
2019-01-30T23:12:58.462Z,3.50
2019-01-30T23:16:08.468Z,3.40
2019-01-30T23:18:53.881Z,3.40
2019-01-30T23:21:27.504Z,3.40
2019-01-30T23:24:27.732Z,3.40
2019-01-30T23:27:10.413Z,3.40
2019-01-30T23:30:35.441Z,3.40
2019-01-30T23:33:44.076Z,3.30
2019-01-30T23:36:37.088Z,3.30
2019-01-30T23:39:41.670Z,3.30
2019-01-30T23:43:01.284Z,3.30
2019-01-30T23:45:55.502Z,3.20
2019-01-30T23:49:18.037Z,3.20
2019-01-30T23:52:19.464Z,3.20
2019-01-30T23:55:41.567Z,3.10
2019-01-30T23:58:36.689Z,3.10
